createdAt,value
2019-01-05T00:02:20.737Z,5.00
2019-01-05T00:04:57.761Z,5.00
2019-01-05T00:07:29.085Z,5.00
2019-01-05T00:10:18.644Z,5.00
2019-01-05T00:12:58.475Z,5.00
2019-01-05T00:15:52.872Z,5.00
2019-01-05T00:18:28.939Z,5.00
2019-01-05T00:21:19.666Z,5.00
2019-01-05T00:23:49.957Z,5.10
2019-01-05T00:26:38.000Z,5.10
2019-01-05T00:29:19.259Z,5.10
2019-01-05T00:32:42.643Z,5.10
2019-01-05T00:35:34.551Z,5.10
2019-01-05T00:38:11.958Z,5.20
2019-01-05T00:40:53.786Z,5.10
2019-01-05T00:43:25.705Z,5.20
2019-01-05T00:46:04.258Z,5.20
2019-01-05T00:49:12.656Z,5.20
2019-01-05T00:51:56.964Z,5.20
2019-01-05T00:54:30.216Z,5.20
2019-01-05T00:57:16.737Z,5.20
2019-01-05T01:00:03.246Z,5.20
2019-01-05T01:02:33.204Z,5.20
2019-01-05T01:05:10.795Z,5.20
2019-01-05T01:07:45.253Z,5.20
2019-01-05T01:10:19.676Z,5.20
2019-01-05T01:12:55.443Z,5.20
2019-01-05T01:15:43.246Z,5.20
2019-01-05T01:18:17.376Z,5.20
2019-01-05T01:20:57.909Z,5.30
2019-01-05T01:23:35.491Z,5.30
2019-01-05T01:26:23.537Z,5.30
2019-01-05T01:29:11.852Z,5.30
2019-01-05T01:31:43.456Z,5.20
2019-01-05T01:34:28.699Z,5.30
2019-01-05T01:37:01.320Z,5.30
2019-01-05T01:39:34.611Z,5.30
2019-01-05T01:42:09.366Z,5.30
2019-01-05T01:44:41.201Z,5.30
2019-01-05T01:47:27.369Z,5.30
2019-01-05T01:50:09.884Z,5.30
2019-01-05T01:52:48.657Z,5.30
2019-01-05T01:55:35.208Z,5.30
2019-01-05T01:58:24.093Z,5.30
2019-01-05T02:01:12.463Z,5.30
2019-01-05T02:03:48.095Z,5.40
2019-01-05T02:06:23.777Z,5.40
2019-01-05T02:09:04.387Z,5.40
2019-01-05T02:11:45.486Z,5.30
2019-01-05T02:14:27.308Z,5.30
2019-01-05T02:17:11.612Z,5.30
2019-01-05T02:19:50.026Z,5.30
2019-01-05T02:22:43.336Z,5.30
2019-01-05T02:25:45.867Z,5.30
2019-01-05T02:28:57.894Z,5.30
2019-01-05T02:32:09.785Z,5.40
2019-01-05T02:35:02.393Z,5.30
2019-01-05T02:38:29.813Z,5.40
2019-01-05T02:41:32.741Z,5.40
2019-01-05T02:44:41.960Z,5.40
2019-01-05T02:47:55.120Z,5.40
2019-01-05T02:51:04.972Z,5.40
2019-01-05T02:54:16.526Z,5.40
2019-01-05T02:57:25.312Z,5.50
2019-01-05T03:00:46.384Z,5.40
2019-01-05T03:04:15.662Z,5.40
2019-01-05T03:07:44.386Z,5.40
2019-01-05T03:11:07.375Z,5.50
2019-01-05T03:14:36.173Z,5.50
2019-01-05T03:17:36.014Z,5.50
2019-01-05T03:20:31.814Z,5.50
2019-01-05T03:23:53.767Z,5.50
2019-01-05T03:26:36.869Z,5.50
2019-01-05T03:29:49.911Z,5.60
2019-01-05T03:33:04.254Z,5.60
2019-01-05T03:36:05.057Z,5.60
2019-01-05T03:39:23.156Z,5.70
2019-01-05T03:42:42.617Z,5.70
2019-01-05T03:45:58.743Z,5.70
2019-01-05T03:49:33.250Z,5.70
2019-01-05T03:52:30.187Z,5.70
2019-01-05T03:55:36.146Z,5.70
2019-01-05T03:58:20.803Z,5.80
2019-01-05T04:01:34.530Z,5.80
2019-01-05T04:04:35.705Z,5.80
2019-01-05T04:08:02.101Z,5.80
2019-01-05T04:11:27.928Z,5.80
2019-01-05T04:14:26.363Z,5.90
2019-01-05T04:17:17.221Z,5.90
2019-01-05T04:20:11.037Z,5.90
2019-01-05T04:23:45.992Z,5.90
2019-01-05T04:26:52.008Z,5.90
2019-01-05T04:29:51.201Z,5.90
2019-01-05T04:32:48.169Z,6.00
2019-01-05T04:35:52.688Z,5.90
2019-01-05T04:39:25.031Z,6.00
2019-01-05T04:42:33.271Z,6.00
2019-01-05T04:46:10.088Z,6.10
2019-01-05T04:49:26.554Z,6.10
2019-01-05T04:52:47.860Z,6.00
2019-01-05T04:55:49.030Z,6.00
2019-01-05T04:59:10.201Z,6.10
2019-01-05T05:02:26.239Z,6.10
2019-01-05T05:05:44.861Z,6.10
2019-01-05T05:09:17.142Z,6.20
2019-01-05T05:12:01.598Z,6.20
2019-01-05T05:14:48.852Z,6.20
2019-01-05T05:17:48.104Z,6.20
2019-01-05T05:21:28.212Z,6.20
2019-01-05T05:25:08.631Z,6.20
2019-01-05T05:28:09.906Z,6.20
2019-01-05T05:30:54.875Z,6.30
2019-01-05T05:34:24.868Z,6.30
2019-01-05T05:37:41.609Z,6.40
2019-01-05T05:41:10.697Z,6.30
2019-01-05T05:44:36.594Z,6.40
2019-01-05T05:47:47.386Z,6.40
2019-01-05T05:51:00.866Z,6.40
2019-01-05T05:53:56.287Z,6.40
2019-01-05T05:57:16.189Z,6.50
2019-01-05T06:00:35.677Z,6.60
2019-01-05T06:03:38.928Z,6.50
2019-01-05T06:06:36.559Z,6.60
2019-01-05T06:09:47.277Z,6.60
2019-01-05T06:13:01.093Z,6.70
2019-01-05T06:16:13.205Z,6.70
2019-01-05T06:19:34.775Z,6.70
2019-01-05T06:22:28.114Z,6.70
2019-01-05T06:25:32.377Z,6.70
2019-01-05T06:28:36.725Z,6.70
2019-01-05T06:31:30.445Z,6.70
2019-01-05T06:34:33.219Z,6.80
2019-01-05T06:37:30.979Z,6.80
2019-01-05T06:40:38.651Z,6.70
2019-01-05T06:43:43.182Z,6.70
2019-01-05T06:46:36.905Z,6.80
2019-01-05T06:49:56.092Z,6.70
2019-01-05T06:52:52.846Z,6.80
2019-01-05T06:55:55.823Z,6.80
2019-01-05T06:59:24.729Z,6.80
2019-01-05T07:02:48.786Z,6.80
2019-01-05T07:05:47.406Z,6.80
2019-01-05T07:08:48.444Z,6.80
2019-01-05T07:11:58.584Z,6.80
2019-01-05T07:15:35.825Z,6.80
2019-01-05T07:19:01.517Z,6.80
2019-01-05T07:21:49.877Z,6.80
2019-01-05T07:24:40.529Z,6.80
2019-01-05T07:28:22.624Z,6.80
2019-01-05T07:35:43.612Z,6.80
2019-01-05T07:38:56.024Z,6.80
2019-01-05T07:42:10.792Z,6.90
2019-01-05T07:44:54.964Z,6.80
2019-01-05T07:48:14.225Z,6.80
2019-01-05T07:51:38.790Z,6.80
2019-01-05T07:56:29.595Z,6.70
2019-01-05T07:59:54.664Z,6.70
2019-01-05T08:02:54.379Z,6.70
2019-01-05T08:05:54.739Z,6.70
2019-01-05T08:09:05.014Z,6.70
2019-01-05T08:12:11.042Z,6.70
2019-01-05T08:15:24.669Z,6.80
2019-01-05T08:18:59.829Z,6.80
2019-01-05T08:22:07.360Z,6.80
2019-01-05T08:25:22.593Z,6.80
2019-01-05T08:28:24.966Z,6.80
2019-01-05T08:31:05.997Z,6.80
2019-01-05T08:34:36.416Z,6.90
2019-01-05T08:37:53.450Z,6.80
2019-01-05T08:41:15.985Z,6.80
2019-01-05T08:44:26.669Z,6.80
2019-01-05T08:47:26.492Z,6.80
2019-01-05T08:50:46.282Z,6.80
2019-01-05T08:54:07.500Z,6.80
2019-01-05T08:57:23.932Z,6.80
2019-01-05T09:00:23.761Z,6.80
2019-01-05T09:03:26.127Z,6.80
2019-01-05T09:06:27.425Z,6.80
2019-01-05T09:09:48.833Z,6.80
2019-01-05T09:13:17.704Z,6.80
2019-01-05T09:16:21.058Z,6.80
2019-01-05T09:19:34.614Z,6.90
2019-01-05T09:22:56.733Z,6.90
2019-01-05T09:26:11.954Z,6.80
2019-01-05T09:29:03.296Z,6.80
2019-01-05T09:32:39.329Z,6.90
2019-01-05T09:35:46.430Z,6.80
2019-01-05T09:38:52.283Z,6.80
2019-01-05T09:41:37.928Z,6.90
2019-01-05T09:45:01.821Z,6.90
2019-01-05T09:48:27.809Z,6.90
2019-01-05T09:51:56.893Z,6.90
2019-01-05T09:55:02.579Z,6.90
2019-01-05T09:58:38.635Z,6.90
2019-01-05T10:01:53.184Z,6.90
2019-01-05T10:05:13.058Z,6.90
2019-01-05T10:08:42.985Z,6.90
2019-01-05T10:11:33.388Z,7.00
2019-01-05T10:14:46.366Z,7.00
2019-01-05T10:17:42.398Z,7.00
2019-01-05T10:20:37.439Z,7.10
2019-01-05T10:23:28.185Z,7.10
2019-01-05T10:26:34.582Z,7.10
2019-01-05T10:29:46.190Z,7.10
2019-01-05T10:33:06.172Z,7.10
2019-01-05T10:36:13.696Z,7.10
2019-01-05T10:39:16.171Z,7.10
2019-01-05T10:42:38.716Z,7.10
2019-01-05T10:45:32.799Z,7.10
2019-01-05T10:48:34.376Z,7.20
2019-01-05T10:51:16.888Z,7.20
2019-01-05T10:54:30.716Z,7.30
2019-01-05T10:57:51.617Z,7.20
2019-01-05T11:00:55.960Z,7.20
2019-01-05T11:04:09.988Z,7.10
2019-01-05T11:07:11.484Z,7.10
2019-01-05T11:10:38.873Z,7.10
2019-01-05T11:14:10.963Z,7.20
2019-01-05T11:17:18.280Z,7.20
2019-01-05T11:20:35.785Z,7.10
2019-01-05T11:23:42.237Z,7.10
2019-01-05T11:26:33.253Z,7.20
2019-01-05T11:29:30.411Z,7.20
2019-01-05T11:32:27.538Z,7.30
2019-01-05T11:36:03.813Z,7.30
2019-01-05T11:39:12.776Z,7.30
2019-01-05T11:42:11.997Z,7.30
2019-01-05T11:45:20.011Z,7.40
2019-01-05T11:48:15.271Z,7.40
2019-01-05T11:51:14.554Z,7.40
2019-01-05T11:54:16.221Z,7.40
2019-01-05T11:57:43.664Z,7.30
2019-01-05T12:00:38.642Z,7.30
2019-01-05T12:03:39.539Z,7.40
2019-01-05T12:06:35.078Z,7.40
2019-01-05T12:09:29.115Z,7.40
2019-01-05T12:12:22.916Z,7.30
2019-01-05T12:15:52.551Z,7.30
2019-01-05T12:19:20.041Z,7.30
2019-01-05T12:22:55.702Z,7.30
2019-01-05T12:25:46.669Z,7.30
2019-01-05T12:29:15.759Z,7.30
2019-01-05T12:32:12.915Z,7.30
2019-01-05T12:35:38.011Z,7.30
2019-01-05T12:38:20.764Z,7.30
2019-01-05T12:41:26.217Z,7.20
2019-01-05T12:44:45.154Z,7.20
2019-01-05T12:47:58.772Z,7.20
2019-01-05T12:51:29.217Z,7.20
2019-01-05T12:54:19.200Z,7.20
2019-01-05T12:57:35.088Z,7.20
2019-01-05T13:00:44.207Z,7.20
2019-01-05T13:04:00.442Z,7.20
2019-01-05T13:07:08.422Z,7.20
2019-01-05T13:10:27.453Z,7.30
2019-01-05T13:13:30.979Z,7.30
2019-01-05T13:16:54.392Z,7.20
2019-01-05T13:20:36.328Z,7.20
2019-01-05T13:23:42.330Z,7.20
2019-01-05T13:26:47.882Z,7.20
2019-01-05T13:30:04.926Z,7.30
2019-01-05T13:33:33.289Z,7.30
2019-01-05T13:36:33.831Z,7.30
2019-01-05T13:39:36.968Z,7.30
2019-01-05T13:42:56.294Z,7.20
2019-01-05T13:46:11.146Z,7.20
2019-01-05T13:49:24.673Z,7.10
2019-01-05T13:52:36.826Z,7.20
2019-01-05T13:55:21.739Z,7.20
2019-01-05T13:58:05.002Z,7.20
2019-01-05T14:00:39.186Z,7.20
2019-01-05T14:03:19.452Z,7.10
2019-01-05T14:06:02.998Z,7.10
2019-01-05T14:08:37.055Z,7.10
2019-01-05T14:11:26.948Z,7.10
2019-01-05T14:14:14.063Z,7.10
2019-01-05T14:16:51.302Z,7.10
2019-01-05T14:19:22.702Z,7.10
2019-01-05T14:22:05.918Z,7.10
2019-01-05T14:24:53.531Z,7.10
2019-01-05T14:27:31.956Z,7.00
2019-01-05T14:30:04.272Z,7.00
2019-01-05T14:32:33.710Z,7.00
2019-01-05T14:35:06.062Z,7.00
2019-01-05T14:37:43.103Z,7.00
2019-01-05T14:40:15.724Z,7.10
2019-01-05T14:43:02.113Z,7.00
2019-01-05T14:45:42.916Z,7.00
2019-01-05T14:48:32.197Z,7.00
2019-01-05T14:51:03.516Z,6.90
2019-01-05T14:53:44.795Z,6.90
2019-01-05T14:56:32.283Z,6.90
2019-01-05T14:59:01.748Z,7.00
2019-01-05T15:01:49.373Z,7.00
2019-01-05T15:04:33.541Z,7.00
2019-01-05T15:07:17.849Z,7.00
2019-01-05T15:09:57.981Z,7.00
2019-01-05T15:12:44.110Z,7.00
2019-01-05T15:15:31.357Z,7.00
2019-01-05T15:18:19.172Z,7.00
2019-01-05T15:20:53.672Z,6.90
2019-01-05T15:23:25.067Z,7.10
2019-01-05T15:26:08.143Z,7.10
2019-01-05T15:28:55.885Z,7.00
2019-01-05T15:31:43.271Z,6.90
2019-01-05T15:34:31.067Z,6.90
2019-01-05T15:37:17.121Z,6.90
2019-01-05T15:40:03.737Z,6.90
2019-01-05T15:42:43.767Z,6.90
2019-01-05T15:45:24.120Z,6.90
2019-01-05T15:47:55.424Z,6.90
2019-01-05T15:50:35.425Z,6.90
2019-01-05T15:53:21.898Z,6.90
2019-01-05T15:55:53.211Z,6.90
2019-01-05T15:58:40.292Z,6.80
2019-01-05T16:01:28.088Z,6.80
2019-01-05T16:03:59.370Z,6.80
2019-01-05T16:06:37.380Z,6.80
2019-01-05T16:09:26.021Z,6.90
2019-01-05T16:12:13.710Z,6.80
2019-01-05T16:15:00.087Z,6.90
2019-01-05T16:17:31.469Z,6.90
2019-01-05T16:20:19.124Z,6.90
2019-01-05T16:23:08.827Z,6.90
2019-01-05T16:25:43.338Z,6.80
2019-01-05T16:28:30.603Z,6.80
2019-01-05T16:31:19.868Z,6.80
2019-01-05T16:34:10.017Z,6.70
2019-01-05T16:36:57.345Z,6.70
2019-01-05T16:39:28.761Z,6.70
2019-01-05T16:42:00.953Z,6.70
2019-01-05T16:44:48.130Z,6.70
2019-01-05T16:47:17.537Z,6.70
2019-01-05T16:50:05.040Z,6.70
2019-01-05T16:52:48.538Z,6.70
2019-01-05T16:55:32.146Z,6.70
2019-01-05T16:58:03.433Z,6.80
2019-01-05T17:00:37.652Z,6.70
2019-01-05T17:03:08.988Z,6.70
2019-01-05T17:05:43.939Z,6.70
2019-01-05T17:08:33.391Z,6.70
2019-01-05T17:11:10.661Z,6.70
2019-01-05T17:14:00.170Z,6.70
2019-01-05T17:16:29.592Z,6.70
2019-01-05T17:19:00.889Z,6.70
2019-01-05T17:21:48.355Z,6.70
2019-01-05T17:24:22.449Z,6.60
2019-01-05T17:27:02.725Z,6.60
2019-01-05T17:29:36.752Z,6.60
2019-01-05T17:32:16.908Z,6.70
2019-01-05T17:34:48.233Z,6.70
2019-01-05T17:37:22.040Z,6.70
2019-01-05T17:39:59.128Z,6.80
2019-01-05T17:42:30.583Z,6.80
2019-01-05T17:45:01.859Z,6.70
2019-01-05T17:47:49.471Z,6.70
2019-01-05T17:50:20.791Z,6.70
2019-01-05T17:53:08.149Z,6.70
2019-01-05T17:55:52.701Z,6.60
2019-01-05T17:58:30.260Z,6.60
2019-01-05T18:01:01.551Z,6.60
2019-01-05T18:03:51.235Z,6.70
2019-01-05T18:06:22.539Z,6.60
2019-01-05T18:08:52.054Z,6.60
2019-01-05T18:11:26.094Z,6.60
2019-01-05T18:13:57.426Z,6.60
2019-01-05T18:16:31.374Z,6.60
2019-01-05T18:19:08.456Z,6.60
2019-01-05T18:21:55.539Z,6.60
2019-01-05T18:24:43.215Z,6.60
2019-01-05T18:27:14.575Z,6.60
2019-01-05T18:30:01.674Z,6.60
2019-01-05T18:32:35.780Z,6.60
2019-01-05T18:35:10.145Z,6.60
2019-01-05T18:37:42.540Z,6.60
2019-01-05T18:40:20.877Z,6.60
2019-01-05T18:42:55.148Z,6.60
2019-01-05T18:45:24.593Z,6.60
2019-01-05T18:48:11.688Z,6.70
2019-01-05T18:50:46.184Z,6.60
2019-01-05T18:53:33.845Z,6.60
2019-01-05T18:56:10.676Z,6.60
2019-01-05T18:58:42.606Z,6.60
2019-01-05T19:01:18.000Z,6.60
2019-01-05T19:04:05.014Z,6.60
2019-01-05T19:06:39.336Z,6.60
2019-01-05T19:09:13.606Z,6.70
2019-01-05T19:11:47.471Z,6.70
2019-01-05T19:14:35.177Z,6.60
2019-01-05T19:17:09.222Z,6.60
2019-01-05T19:19:55.574Z,6.60
2019-01-05T19:22:35.584Z,6.50
2019-01-05T19:25:16.837Z,6.60
2019-01-05T19:27:53.948Z,6.60
2019-01-05T19:30:41.097Z,6.60
2019-01-05T19:33:16.293Z,6.60
2019-01-05T19:35:48.290Z,6.60
2019-01-05T19:38:19.666Z,6.50
2019-01-05T19:41:06.107Z,6.50
2019-01-05T19:43:47.417Z,6.60
2019-01-05T19:46:34.909Z,6.50
2019-01-05T19:49:12.050Z,6.70
2019-01-05T19:51:43.368Z,6.60
2019-01-05T19:54:20.930Z,6.60
2019-01-05T19:57:07.640Z,6.60
2019-01-05T19:59:44.612Z,6.60
2019-01-05T20:02:28.180Z,6.50
2019-01-05T20:05:00.569Z,6.60
2019-01-05T20:07:40.921Z,6.60
2019-01-05T20:10:15.024Z,6.60
2019-01-05T20:12:47.294Z,6.60
2019-01-05T20:15:27.423Z,6.60
2019-01-05T20:18:14.936Z,6.50
2019-01-05T20:21:04.274Z,6.60
2019-01-05T20:23:44.330Z,6.60
2019-01-05T20:26:21.356Z,6.60
2019-01-05T20:28:52.704Z,6.60
2019-01-05T20:31:26.732Z,6.50
2019-01-05T20:33:58.098Z,6.50
2019-01-05T20:36:38.273Z,6.50
2019-01-05T20:39:10.533Z,6.50
2019-01-05T20:41:47.306Z,6.50
2019-01-05T20:44:21.089Z,6.60
2019-01-05T20:46:58.769Z,6.50
2019-01-05T20:49:48.195Z,6.60
2019-01-05T20:52:35.582Z,6.60
2019-01-05T20:55:14.182Z,6.50
2019-01-05T20:57:58.411Z,6.50
2019-01-05T21:00:45.812Z,6.50
2019-01-05T21:03:32.151Z,6.50
2019-01-05T21:06:18.585Z,6.50
2019-01-05T21:08:49.899Z,6.60
2019-01-05T21:11:36.371Z,6.50
2019-01-05T21:14:23.792Z,6.60
2019-01-05T21:16:59.040Z,6.60
2019-01-05T21:19:39.090Z,6.50
2019-01-05T21:22:26.779Z,6.50
2019-01-05T21:25:14.199Z,6.50
2019-01-05T21:27:48.647Z,6.60
2019-01-05T21:30:19.956Z,6.60
2019-01-05T21:33:07.347Z,6.60
2019-01-05T21:35:44.408Z,6.60
2019-01-05T21:38:24.569Z,6.60
2019-01-05T21:41:11.841Z,6.60
2019-01-05T21:43:43.184Z,6.50
2019-01-05T21:46:24.792Z,6.50
2019-01-05T21:48:56.110Z,6.60
2019-01-05T21:51:43.648Z,6.60
2019-01-05T21:54:23.974Z,6.60
2019-01-05T21:56:59.380Z,6.60
2019-01-05T21:59:36.735Z,6.50
2019-01-05T22:02:11.166Z,6.50
2019-01-05T22:04:58.396Z,6.50
2019-01-05T22:07:29.696Z,6.50
2019-01-05T22:10:07.240Z,6.50
2019-01-05T22:12:44.280Z,6.50
2019-01-05T22:15:15.691Z,6.50
2019-01-05T22:17:50.035Z,6.60
2019-01-05T22:20:24.567Z,6.60
2019-01-05T22:23:10.662Z,6.50
2019-01-05T22:25:50.967Z,6.50
2019-01-05T22:28:32.428Z,6.50
2019-01-05T22:31:12.381Z,6.50
2019-01-05T22:33:43.686Z,6.50
2019-01-05T22:36:23.987Z,6.50
2019-01-05T22:39:07.213Z,6.50
2019-01-05T22:41:54.895Z,6.50
2019-01-05T22:44:28.796Z,6.50
2019-01-05T22:47:13.205Z,6.50
2019-01-05T22:49:50.586Z,6.50
2019-01-05T22:52:20.033Z,6.40
2019-01-05T22:54:58.311Z,6.40
2019-01-05T22:57:45.416Z,6.50
2019-01-05T23:00:32.759Z,6.50
2019-01-05T23:03:04.082Z,6.50
2019-01-05T23:05:38.269Z,6.50
2019-01-05T23:08:15.578Z,6.40
2019-01-05T23:11:04.304Z,6.40
2019-01-05T23:13:38.049Z,6.50
2019-01-05T23:16:09.389Z,6.50
2019-01-05T23:18:50.091Z,6.40
2019-01-05T23:21:37.784Z,6.40
2019-01-05T23:24:09.073Z,6.40
2019-01-05T23:26:46.111Z,6.50
2019-01-05T23:29:20.436Z,6.50
2019-01-05T23:32:04.110Z,6.50
2019-01-05T23:34:35.385Z,6.50
2019-01-05T23:37:22.755Z,6.50
2019-01-05T23:40:09.464Z,6.50
2019-01-05T23:42:39.058Z,6.40
2019-01-05T23:45:16.122Z,6.40
2019-01-05T23:48:05.713Z,6.40
2019-01-05T23:50:35.138Z,6.50
2019-01-05T23:53:21.911Z,6.40
2019-01-05T23:55:57.273Z,6.50
2019-01-05T23:58:35.448Z,6.50
